Time;durP1;ratioP1;P1;durP2;ratioP2;P2;SDS_P1;SDS_P2;PMS_P1;PMS_P2;Temp;Humidity;BMP_temperature;BMP_pressure;BME280_temperature;BME280_humidity;BME280_pressure;Samples;Min_cycle;Max_cycle;Signal;HPM_P1;HPM_P2
2022/03/19 00:01:43;;;;;;;1.75;0.80;;;21.80;32.50;;;;;;5039987;28;20028;-51
2022/03/19 00:04:09;;;;;;;1.20;0.77;;;21.80;32.50;;;;;;5047278;28;20094;-51
2022/03/19 00:06:39;;;;;;;1.67;0.70;;;21.80;32.50;;;;;;5034667;28;20036;-48
2022/03/19 00:09:07;;;;;;;0.98;0.50;;;21.80;32.50;;;;;;5038920;28;20029;-52
2022/03/19 00:11:34;;;;;;;1.73;0.80;;;21.80;32.50;;;;;;5036604;28;20037;-49
2022/03/19 00:13:59;;;;;;;2.33;0.70;;;21.80;32.50;;;;;;5035184;28;20029;-52
2022/03/19 00:16:25;;;;;;;1.98;0.80;;;21.80;32.40;;;;;;5034516;28;20025;-48
2022/03/19 00:18:51;;;;;;;0.93;0.52;;;21.80;32.40;;;;;;5035427;28;20080;-52
2022/03/19 00:21:17;;;;;;;1.42;0.52;;;21.80;32.40;;;;;;5046864;28;20036;-50
2022/03/19 00:23:43;;;;;;;1.60;0.70;;;21.90;32.50;;;;;;5034459;28;20128;-54
2022/03/19 00:26:09;;;;;;;1.35;0.70;;;21.80;32.40;;;;;;5047584;28;20035;-56
2022/03/19 00:28:40;;;;;;;2.25;0.70;;;21.90;32.50;;;;;;5049997;28;20021;-50
2022/03/19 00:31:06;;;;;;;1.35;0.60;;;21.90;32.50;;;;;;5017287;28;20112;-54
2022/03/19 00:33:32;;;;;;;2.35;0.73;;;21.90;32.50;;;;;;5048971;28;20025;-50
2022/03/19 00:35:59;;;;;;;1.67;0.70;;;21.80;32.40;;;;;;5046440;28;20468;-51
2022/03/19 00:38:24;;;;;;;0.80;0.50;;;21.90;32.50;;;;;;5051480;28;20669;-54
2022/03/19 00:40:51;;;;;;;1.45;0.65;;;21.80;32.40;;;;;;5034398;28;20032;-56
2022/03/19 00:43:20;;;;;;;1.85;0.73;;;21.90;32.40;;;;;;5034090;28;20037;-52
2022/03/19 00:45:47;;;;;;;2.67;0.82;;;21.90;32.40;;;;;;5044478;28;20029;-55
2022/03/19 00:48:15;;;;;;;0.93;0.70;;;21.80;32.40;;;;;;5040464;28;20097;-51
2022/03/19 00:50:41;;;;;;;1.90;0.80;;;21.80;32.40;;;;;;5043953;28;20035;-54
2022/03/19 00:53:07;;;;;;;1.15;0.55;;;21.90;32.40;;;;;;5040286;28;20017;-49
2022/03/19 00:55:33;;;;;;;1.77;0.80;;;21.90;32.40;;;;;;5042255;28;20400;-51
2022/03/19 00:57:58;;;;;;;1.98;0.70;;;21.80;32.40;;;;;;5042659;28;20341;-50
2022/03/19 01:00:26;;;;;;;1.98;0.90;;;21.80;32.40;;;;;;5034668;28;20092;-49
2022/03/19 01:02:54;;;;;;;1.48;0.57;;;21.90;32.40;;;;;;5035832;28;20037;-50
2022/03/19 01:05:21;;;;;;;1.33;0.52;;;21.90;32.40;;;;;;5034709;28;20032;-53
2022/03/19 01:07:49;;;;;;;2.28;0.80;;;21.80;32.40;;;;;;5034096;28;20083;-52
2022/03/19 01:10:19;;;;;;;1.10;0.60;;;21.80;33.00;;;;;;5040198;28;20025;-54
2022/03/19 01:12:45;;;;;;;1.83;0.75;;;21.80;32.40;;;;;;5034659;28;20025;-53
2022/03/19 01:15:11;;;;;;;1.45;0.75;;;21.80;32.40;;;;;;5024429;28;20032;-55
2022/03/19 01:17:38;;;;;;;1.80;0.85;;;21.90;32.50;;;;;;5034672;28;20029;-52
2022/03/19 01:20:05;;;;;;;2.38;0.80;;;21.80;32.50;;;;;;5033926;28;20033;-52
2022/03/19 01:22:33;;;;;;;1.35;0.63;;;21.80;32.50;;;;;;5036386;28;20059;-54
2022/03/19 01:25:04;;;;;;;2.22;0.73;;;21.80;32.40;;;;;;5041048;28;20025;-50
2022/03/19 01:27:31;;;;;;;1.60;0.80;;;21.80;32.50;;;;;;5058225;28;20107;-52
2022/03/19 01:29:58;;;;;;;2.97;0.80;;;21.80;32.40;;;;;;5045000;28;20125;-53
2022/03/19 01:32:23;;;;;;;2.30;0.98;;;21.80;32.40;;;;;;5031986;28;20025;-50
2022/03/19 01:34:53;;;;;;;1.83;0.80;;;21.80;32.40;;;;;;5041287;28;20321;-54
2022/03/19 01:37:20;;;;;;;3.45;0.80;;;21.80;32.50;;;;;;5057827;28;20033;-52
2022/03/19 01:39:46;;;;;;;1.27;0.68;;;21.80;32.50;;;;;;5042476;28;20345;-50
2022/03/19 01:42:12;;;;;;;1.55;0.70;;;21.80;32.50;;;;;;5039802;28;20099;-52
2022/03/19 01:44:37;;;;;;;1.98;0.70;;;21.80;32.60;;;;;;5026015;28;20111;-52
2022/03/19 01:47:10;;;;;;;2.05;0.70;;;21.80;32.60;;;;;;5038006;28;20029;-52
2022/03/19 01:49:36;;;;;;;1.02;0.60;;;21.80;32.60;;;;;;5037176;28;20048;-53
2022/03/19 01:52:03;;;;;;;1.90;0.90;;;21.80;32.60;;;;;;5040061;28;20076;-51
2022/03/19 01:54:32;;;;;;;2.15;0.80;;;21.80;32.60;;;;;;5040552;28;20029;-55
2022/03/19 01:56:59;;;;;;;1.55;0.85;;;21.80;32.60;;;;;;5037505;28;20103;-54
2022/03/19 01:59:30;;;;;;;1.92;0.70;;;21.80;32.60;;;;;;5019631;28;20087;-55
2022/03/19 02:01:58;;;;;;;1.90;0.70;;;21.80;32.60;;;;;;5025380;28;20024;-53
2022/03/19 02:04:24;;;;;;;2.03;0.60;;;21.80;32.60;;;;;;5045080;28;20124;-53
2022/03/19 02:06:52;;;;;;;3.05;0.95;;;21.80;32.60;;;;;;5037233;28;20108;-52
2022/03/19 02:09:18;;;;;;;1.73;0.85;;;21.80;32.60;;;;;;5037005;28;20318;-53
2022/03/19 02:11:44;;;;;;;1.85;0.85;;;21.80;32.60;;;;;;5054591;28;20040;-55
2022/03/19 02:14:09;;;;;;;2.08;0.70;;;21.80;32.60;;;;;;5037044;28;20021;-55
2022/03/19 02:16:35;;;;;;;1.98;0.82;;;21.80;32.60;;;;;;5019546;28;20045;-53
2022/03/19 02:19:01;;;;;;;1.75;1.00;;;21.80;32.60;;;;;;5036716;28;20028;-52
2022/03/19 02:21:39;;;;;;;1.42;0.70;;;21.80;32.60;;;;;;5027009;28;20028;-53
2022/03/19 02:26:50;;;;;;;;;;;21.80;32.60;;;;;;5031708;28;20131;-52
2022/03/19 02:29:15;;;;;;;1.00;0.40;;;21.80;32.60;;;;;;5036513;28;19986;-54
2022/03/19 02:31:45;;;;;;;2.03;0.90;;;21.70;32.50;;;;;;5041708;28;20063;-54
2022/03/19 02:34:11;;;;;;;1.98;0.82;;;21.70;32.50;;;;;;5045741;28;20021;-51
2022/03/19 02:36:41;;;;;;;1.83;0.57;;;21.80;32.60;;;;;;5054589;28;20028;-57
2022/03/19 02:39:22;;;;;;;1.77;0.70;;;21.70;32.50;;;;;;5033288;28;20036;-51
2022/03/19 02:41:49;;;;;;;2.10;0.80;;;21.70;32.50;;;;;;5046050;28;20044;-55
2022/03/19 02:44:18;;;;;;;1.23;0.60;;;21.70;32.50;;;;;;5035942;28;20444;-54
2022/03/19 02:46:46;;;;;;;2.00;0.80;;;21.70;32.50;;;;;;5054407;28;20162;-54
2022/03/19 02:49:14;;;;;;;2.05;0.88;;;21.70;32.50;;;;;;5037147;28;20456;-50
2022/03/19 02:51:42;;;;;;;1.38;0.60;;;21.70;32.50;;;;;;5039635;28;20428;-54
2022/03/19 02:54:10;;;;;;;2.35;0.80;;;21.70;32.50;;;;;;5035490;28;20045;-54
2022/03/19 02:56:39;;;;;;;2.63;0.82;;;21.70;32.50;;;;;;5055001;28;20106;-53
2022/03/19 02:59:08;;;;;;;1.30;0.70;;;21.70;32.50;;;;;;5036307;28;20176;-51
2022/03/19 03:01:34;;;;;;;2.25;0.68;;;21.70;33.20;;;;;;5050421;28;20364;-56
2022/03/19 03:04:01;;;;;;;3.15;0.85;;;21.70;32.50;;;;;;5018440;28;20037;-54
2022/03/19 03:06:28;;;;;;;2.15;0.88;;;21.70;32.50;;;;;;5036098;28;20146;-55
2022/03/19 03:08:55;;;;;;;1.65;0.70;;;21.70;32.50;;;;;;5053254;28;20028;-57
2022/03/19 03:11:21;;;;;;;1.95;0.75;;;21.70;32.50;;;;;;5040513;28;20049;-54
2022/03/19 03:13:47;;;;;;;2.53;0.60;;;21.70;32.50;;;;;;5055136;28;20071;-55
2022/03/19 03:16:12;;;;;;;1.20;0.77;;;21.70;32.50;;;;;;5041533;28;20072;-54
2022/03/19 03:18:38;;;;;;;2.40;0.93;;;21.70;32.50;;;;;;5035626;28;20500;-52
2022/03/19 03:21:04;;;;;;;2.65;0.88;;;21.70;32.50;;;;;;5035855;28;20040;-53
2022/03/19 03:23:31;;;;;;;1.73;0.70;;;21.70;32.50;;;;;;5041209;28;20046;-55
2022/03/19 03:25:57;;;;;;;1.33;0.60;;;21.70;32.50;;;;;;5036159;28;20036;-55
2022/03/19 03:28:23;;;;;;;1.23;0.75;;;21.70;32.50;;;;;;5051080;28;20069;-52
2022/03/19 03:30:49;;;;;;;2.70;0.70;;;21.70;32.50;;;;;;5035965;28;20033;-48
2022/03/19 03:33:15;;;;;;;1.20;0.65;;;21.70;32.50;;;;;;5035846;28;20033;-56
2022/03/19 03:35:41;;;;;;;1.33;0.80;;;21.70;32.50;;;;;;5035798;28;20037;-53
2022/03/19 03:38:07;;;;;;;2.17;0.70;;;21.70;32.50;;;;;;5050889;28;20028;-56
2022/03/19 03:40:33;;;;;;;2.10;0.80;;;21.70;32.50;;;;;;5035317;28;20451;-53
2022/03/19 03:42:59;;;;;;;2.10;1.00;;;21.70;32.50;;;;;;5048343;28;20298;-51
2022/03/19 03:45:29;;;;;;;1.83;0.70;;;21.70;32.50;;;;;;5035725;28;20037;-51
2022/03/19 03:47:54;;;;;;;4.15;0.77;;;21.70;32.50;;;;;;5036141;28;20328;-54
2022/03/19 03:50:20;;;;;;;3.00;1.10;;;21.70;32.50;;;;;;5044159;28;20017;-56
2022/03/19 03:52:46;;;;;;;1.58;0.75;;;21.60;32.50;;;;;;5044391;28;20053;-56
2022/03/19 03:55:14;;;;;;;2.28;0.88;;;21.60;32.50;;;;;;5042663;28;20440;-51
2022/03/19 03:57:40;;;;;;;2.13;0.80;;;21.70;32.50;;;;;;5043565;28;20088;-54
2022/03/19 04:00:10;;;;;;;2.35;0.95;;;21.70;32.50;;;;;;5036368;28;20032;-53
2022/03/19 04:02:39;;;;;;;1.88;0.80;;;21.60;32.50;;;;;;5034535;28;20104;-51
2022/03/19 04:05:07;;;;;;;2.22;1.10;;;21.60;32.50;;;;;;5035878;28;20040;-55
2022/03/19 04:07:33;;;;;;;2.10;0.60;;;21.70;32.60;;;;;;5034782;28;20399;-51
2022/03/19 04:09:59;;;;;;;1.67;0.60;;;21.70;32.50;;;;;;5036934;28;20348;-51
2022/03/19 04:12:24;;;;;;;2.35;0.77;;;21.60;32.50;;;;;;5035221;28;20032;-53
2022/03/19 04:14:52;;;;;;;1.00;0.60;;;21.60;32.50;;;;;;5038561;28;20036;-54
2022/03/19 04:17:18;;;;;;;1.80;0.82;;;21.60;32.50;;;;;;5046739;28;20437;-53
2022/03/19 04:19:45;;;;;;;1.95;0.90;;;21.60;32.50;;;;;;5032604;28;20067;-56
2022/03/19 04:22:10;;;;;;;1.48;0.70;;;21.60;32.50;;;;;;5033980;28;20479;-53
2022/03/19 04:24:36;;;;;;;2.00;0.65;;;21.60;32.50;;;;;;5036524;28;20032;-54
2022/03/19 04:27:03;;;;;;;2.13;0.93;;;21.60;32.50;;;;;;5045609;28;20345;-55
2022/03/19 04:29:29;;;;;;;1.00;0.60;;;21.60;32.50;;;;;;5035550;28;20021;-51
2022/03/19 04:31:55;;;;;;;2.13;0.90;;;21.60;32.50;;;;;;5034640;28;20468;-53
2022/03/19 04:34:21;;;;;;;1.63;0.50;;;21.60;32.50;;;;;;5035166;28;20116;-52
2022/03/19 04:36:48;;;;;;;2.40;0.80;;;21.60;32.50;;;;;;5034269;28;20487;-53
2022/03/19 04:39:13;;;;;;;1.70;0.70;;;21.60;32.50;;;;;;5035282;28;20448;-52
2022/03/19 04:41:40;;;;;;;2.17;0.80;;;21.60;32.50;;;;;;5034923;28;20036;-53
2022/03/19 04:44:06;;;;;;;2.55;1.10;;;21.60;32.50;;;;;;5034289;28;20433;-53
2022/03/19 04:46:32;;;;;;;2.25;0.80;;;21.60;32.50;;;;;;5034405;28;20052;-52
2022/03/19 04:48:58;;;;;;;2.03;0.85;;;21.60;32.50;;;;;;5054999;28;20394;-51
2022/03/19 04:51:30;;;;;;;2.08;0.95;;;21.60;32.50;;;;;;5020946;28;20029;-54
2022/03/19 04:53:56;;;;;;;3.22;0.80;;;21.60;32.50;;;;;;5034356;28;20112;-52
2022/03/19 04:56:27;;;;;;;2.38;0.95;;;21.60;32.50;;;;;;5020949;28;20105;-54
2022/03/19 04:58:58;;;;;;;2.13;0.80;;;21.60;32.50;;;;;;5038441;28;20472;-53
2022/03/19 05:01:31;;;;;;;2.65;0.95;;;21.60;32.50;;;;;;5039908;28;20041;-53
2022/03/19 05:03:57;;;;;;;1.48;0.70;;;21.60;32.50;;;;;;5038574;28;20504;-53
2022/03/19 05:06:23;;;;;;;2.72;1.00;;;21.60;32.50;;;;;;5051586;28;20040;-50
2022/03/19 05:11:12;;;;;;;2.42;1.20;;;21.60;32.50;;;;;;5039139;28;20061;-54
2022/03/19 05:11:38;;;;;;;1.77;0.82;;;21.50;32.40;;;;;;5018615;28;20108;-54
2022/03/19 05:14:04;;;;;;;2.05;0.50;;;21.60;32.50;;;;;;5021037;28;20065;-56
2022/03/19 05:16:31;;;;;;;2.15;0.90;;;21.60;32.50;;;;;;5050180;28;20057;-52
2022/03/19 05:18:56;;;;;;;2.10;0.70;;;21.50;32.40;;;;;;5037694;28;20448;-51
2022/03/19 05:21:22;;;;;;;1.38;0.82;;;21.50;32.40;;;;;;5056157;28;20043;-53
2022/03/19 05:23:48;;;;;;;1.40;0.70;;;21.50;32.40;;;;;;5057948;28;20148;-52
2022/03/19 05:26:14;;;;;;;1.08;0.65;;;21.50;32.40;;;;;;5038729;28;20017;-55
2022/03/19 05:28:40;;;;;;;1.85;0.70;;;21.50;32.40;;;;;;5045154;28;20029;-53
2022/03/19 05:31:08;;;;;;;1.45;0.55;;;21.50;32.40;;;;;;5037786;28;20096;-54
2022/03/19 05:36:19;;;;;;;1.67;0.70;;;21.50;32.40;;;;;;5039501;28;20068;-53
2022/03/19 05:38:45;;;;;;;1.55;0.73;;;21.50;32.40;;;;;;5055300;28;20033;-54
2022/03/19 05:41:11;;;;;;;2.60;1.17;;;21.50;33.10;;;;;;5042661;28;20029;-54
2022/03/19 05:43:37;;;;;;;1.50;0.60;;;21.50;32.40;;;;;;5037413;28;20061;-54
2022/03/19 05:46:03;;;;;;;1.77;0.70;;;21.50;32.40;;;;;;5051565;28;20044;-54
2022/03/19 05:48:29;;;;;;;1.23;0.77;;;21.50;32.40;;;;;;5042311;28;20053;-49
2022/03/19 05:50:55;;;;;;;1.23;0.60;;;21.50;32.40;;;;;;5037141;28;20068;-53
2022/03/19 05:53:21;;;;;;;1.85;0.77;;;21.50;32.40;;;;;;5037725;28;20036;-53
2022/03/19 05:55:47;;;;;;;1.92;0.85;;;21.50;32.40;;;;;;5037153;28;20021;-57
2022/03/19 05:58:13;;;;;;;1.95;0.70;;;21.50;32.30;;;;;;5037609;28;20108;-51
2022/03/19 06:00:40;;;;;;;1.80;0.77;;;21.50;32.30;;;;;;5037078;28;20084;-50
2022/03/19 06:03:05;;;;;;;1.45;0.80;;;21.50;32.30;;;;;;5041465;28;20408;-52
2022/03/19 06:05:33;;;;;;;1.23;0.80;;;21.50;32.20;;;;;;5027449;28;20033;-51
2022/03/19 06:07:59;;;;;;;1.45;0.80;;;21.50;32.20;;;;;;5046711;28;20040;-52
2022/03/19 06:10:25;;;;;;;2.58;0.88;;;21.50;32.20;;;;;;5047287;28;20039;-53
2022/03/19 06:12:50;;;;;;;1.45;0.70;;;21.50;32.20;;;;;;5057178;28;20021;-53
2022/03/19 06:15:16;;;;;;;1.10;0.70;;;21.50;32.20;;;;;;5038094;28;20440;-51
2022/03/19 06:17:42;;;;;;;1.13;0.50;;;21.50;32.20;;;;;;5037282;28;20029;-51
2022/03/19 06:20:08;;;;;;;2.45;0.90;;;21.50;32.10;;;;;;5037746;28;20033;-54
2022/03/19 06:22:34;;;;;;;1.33;0.57;;;21.50;32.10;;;;;;5033331;28;20049;-51
2022/03/19 06:25:00;;;;;;;1.13;0.68;;;21.50;32.10;;;;;;5037109;28;20037;-52
2022/03/19 06:27:26;;;;;;;2.25;0.85;;;21.50;32.10;;;;;;5036674;28;20037;-55
2022/03/19 06:29:51;;;;;;;2.33;0.95;;;21.50;32.10;;;;;;5037403;28;20371;-50
2022/03/19 06:32:20;;;;;;;1.38;0.82;;;21.50;32.10;;;;;;5019443;28;20035;-50
2022/03/19 06:34:48;;;;;;;1.45;0.80;;;21.50;32.00;;;;;;5036757;28;20040;-51
2022/03/19 06:37:20;;;;;;;1.80;0.80;;;21.50;32.00;;;;;;5037028;28;20022;-54
2022/03/19 06:39:55;;;;;;;0.82;0.52;;;21.50;32.10;;;;;;5036851;28;20124;-54
2022/03/19 06:42:22;;;;;;;2.03;0.80;;;21.40;31.90;;;;;;5035454;28;20456;-53
2022/03/19 06:44:48;;;;;;;3.25;0.68;;;21.40;32.60;;;;;;5018815;28;20036;-54
2022/03/19 06:47:14;;;;;;;1.52;0.70;;;21.40;32.00;;;;;;5036799;28;20325;-54
2022/03/19 06:49:41;;;;;;;1.90;0.80;;;21.40;32.00;;;;;;5036376;28;20021;-52
2022/03/19 06:52:07;;;;;;;1.35;0.70;;;21.40;32.00;;;;;;5036965;28;20025;-51
2022/03/19 06:54:33;;;;;;;3.17;0.57;;;21.40;32.00;;;;;;5036887;28;20083;-52
2022/03/19 06:56:59;;;;;;;1.65;0.93;;;21.40;31.90;;;;;;5027887;28;20026;-51
2022/03/19 06:59:25;;;;;;;0.95;0.65;;;21.40;31.90;;;;;;5017050;28;20437;-52
2022/03/19 07:01:51;;;;;;;0.98;0.50;;;21.40;31.90;;;;;;5031313;28;20424;-55
2022/03/19 07:04:16;;;;;;;2.17;0.73;;;21.40;31.90;;;;;;5017710;28;20083;-50
2022/03/19 07:06:42;;;;;;;1.33;0.70;;;21.40;31.90;;;;;;5036229;28;20037;-48
2022/03/19 07:09:08;;;;;;;1.70;0.80;;;21.40;31.90;;;;;;5042935;28;20025;-50
2022/03/19 07:11:37;;;;;;;2.97;0.75;;;21.40;31.90;;;;;;5036242;28;20029;-48
2022/03/19 07:14:05;;;;;;;1.23;0.73;;;21.40;31.80;;;;;;5042969;28;20020;-53
2022/03/19 07:16:30;;;;;;;4.63;0.80;;;21.40;31.80;;;;;;5037160;28;20029;-49
2022/03/19 07:18:57;;;;;;;3.65;0.80;;;21.40;31.80;;;;;;5035959;28;20029;-50
2022/03/19 07:21:22;;;;;;;1.58;0.77;;;21.40;31.80;;;;;;5035839;28;20115;-50
2022/03/19 07:23:49;;;;;;;2.03;0.80;;;21.40;31.70;;;;;;5036085;28;20072;-49
2022/03/19 07:26:15;;;;;;;1.67;0.80;;;21.40;31.70;;;;;;5044324;28;20028;-57
2022/03/19 07:28:41;;;;;;;1.20;0.70;;;21.40;31.70;;;;;;5046278;28;20033;-53
2022/03/19 07:31:06;;;;;;;2.60;0.93;;;21.40;31.70;;;;;;5036047;28;20108;-54
2022/03/19 07:33:34;;;;;;;2.95;0.80;;;21.40;31.70;;;;;;5035181;28;20105;-54
2022/03/19 07:36:02;;;;;;;1.70;0.70;;;21.40;31.70;;;;;;5034133;28;20025;-50
2022/03/19 07:38:30;;;;;;;8.80;0.80;;;21.40;31.70;;;;;;5035161;28;20033;-52
2022/03/19 07:43:41;;;;;;;;;;;21.40;31.70;;;;;;5018164;28;20384;-51
2022/03/19 07:46:07;;;;;;;1.73;0.65;;;21.40;31.80;;;;;;5050504;28;19905;-53
2022/03/19 07:48:33;;;;;;;1.48;0.60;;;21.40;31.80;;;;;;5036507;28;20109;-52
2022/03/19 07:50:58;;;;;;;1.77;0.77;;;21.40;31.80;;;;;;5018943;28;20045;-51
2022/03/19 07:53:24;;;;;;;2.00;0.60;;;21.40;31.80;;;;;;5034577;28;20021;-53
2022/03/19 07:55:50;;;;;;;1.52;0.75;;;21.40;31.80;;;;;;5033724;28;20025;-55
2022/03/19 07:58:17;;;;;;;3.05;0.80;;;21.40;31.90;;;;;;5035234;28;20013;-55
2022/03/19 08:00:44;;;;;;;1.58;0.68;;;21.40;32.50;;;;;;5034464;28;20022;-53
2022/03/19 08:03:10;;;;;;;1.30;0.60;;;21.40;31.90;;;;;;5033088;28;20038;-56
2022/03/19 08:05:36;;;;;;;3.40;0.95;;;21.40;31.90;;;;;;5048355;28;20442;-55
2022/03/19 08:08:05;;;;;;;2.08;0.90;;;21.40;31.90;;;;;;5040966;28;20104;-54
2022/03/19 08:10:31;;;;;;;1.90;0.82;;;21.40;31.90;;;;;;5031834;28;20029;-53
2022/03/19 08:13:06;;;;;;;2.35;0.85;;;21.40;31.90;;;;;;5034664;28;20033;-52
2022/03/19 08:15:34;;;;;;;2.63;0.90;;;21.40;31.90;;;;;;5034127;28;20464;-56
2022/03/19 08:18:01;;;;;;;3.05;1.45;;;21.40;31.90;;;;;;5048356;28;20029;-51
2022/03/19 08:20:27;;;;;;;1.63;0.80;;;21.40;31.90;;;;;;5050149;28;20029;-54
2022/03/19 08:22:54;;;;;;;2.20;0.90;;;21.40;31.90;;;;;;5032802;28;20341;-52
2022/03/19 08:25:20;;;;;;;1.85;0.60;;;21.40;31.80;;;;;;5035809;28;20025;-57
2022/03/19 08:27:46;;;;;;;2.05;0.80;;;21.40;31.80;;;;;;5032931;28;20524;-56
2022/03/19 08:30:12;;;;;;;2.83;0.82;;;21.40;31.80;;;;;;5035076;28;20099;-54
2022/03/19 08:32:38;;;;;;;1.50;0.73;;;21.40;31.80;;;;;;5034342;28;20108;-55
2022/03/19 08:35:04;;;;;;;2.40;0.90;;;21.40;31.80;;;;;;5034827;28;20113;-56
2022/03/19 08:37:32;;;;;;;2.05;0.98;;;21.30;31.70;;;;;;5035376;28;20029;-54
2022/03/19 08:40:17;;;;;;;2.20;0.60;;;21.30;31.60;;;;;;5034820;28;20321;-55
2022/03/19 08:42:53;;;;;;;2.08;0.90;;;21.30;31.60;;;;;;5032423;28;20047;-60
2022/03/19 08:45:21;;;;;;;1.70;0.80;;;21.30;31.60;;;;;;5033699;28;20504;-56
2022/03/19 08:47:47;;;;;;;1.55;0.82;;;21.30;31.70;;;;;;5033195;28;20052;-51
2022/03/19 08:50:13;;;;;;;1.30;0.63;;;21.30;31.60;;;;;;5033072;28;20026;-54
2022/03/19 08:52:45;;;;;;;2.60;0.80;;;21.30;31.60;;;;;;5033079;28;20017;-53
2022/03/19 08:55:11;;;;;;;1.35;0.60;;;21.30;31.50;;;;;;5014792;28;20092;-51
2022/03/19 08:57:37;;;;;;;1.90;0.80;;;21.30;31.50;;;;;;5016645;28;20033;-45
2022/03/19 09:00:06;;;;;;;1.88;0.85;;;21.30;31.50;;;;;;5033139;28;20048;-44
2022/03/19 09:02:32;;;;;;;1.83;0.73;;;21.30;31.50;;;;;;5033897;28;20100;-46
2022/03/19 09:04:58;;;;;;;4.70;0.93;;;21.20;31.40;;;;;;5033211;28;20037;-54
2022/03/19 09:07:24;;;;;;;2.20;1.02;;;21.10;31.40;;;;;;5033283;28;20033;-54
2022/03/19 09:09:52;;;;;;;0.95;0.43;;;21.10;31.40;;;;;;5032068;28;20025;-50
2022/03/19 09:12:26;;;;;;;1.65;0.80;;;21.00;31.40;;;;;;5028690;28;20104;-56
2022/03/19 09:14:54;;;;;;;1.88;0.65;;;21.00;31.30;;;;;;5024755;28;20030;-55
2022/03/19 09:17:21;;;;;;;1.52;0.60;;;21.00;31.40;;;;;;5028704;28;20037;-51
2022/03/19 09:19:48;;;;;;;2.05;0.80;;;21.00;31.50;;;;;;5027445;28;20080;-46
2022/03/19 09:22:15;;;;;;;2.10;0.90;;;21.00;31.60;;;;;;5020975;28;20376;-58
2022/03/19 09:24:42;;;;;;;3.92;1.15;;;21.10;31.80;;;;;;5010986;28;20080;-58
2022/03/19 09:27:09;;;;;;;3.20;0.60;;;21.10;31.90;;;;;;5032302;28;20021;-60
2022/03/19 09:29:35;;;;;;;1.40;0.60;;;21.20;32.00;;;;;;5030188;28;20069;-52
2022/03/19 09:32:01;;;;;;;3.22;0.70;;;21.20;31.90;;;;;;5025360;28;20050;-58
2022/03/19 09:34:27;;;;;;;1.55;0.95;;;21.30;32.00;;;;;;5015729;28;20524;-55
2022/03/19 09:36:53;;;;;;;2.05;0.70;;;21.30;31.90;;;;;;5023625;28;20033;-55
2022/03/19 09:39:19;;;;;;;1.77;0.90;;;21.30;31.90;;;;;;5033173;28;20074;-59
2022/03/19 09:41:45;;;;;;;1.35;0.80;;;21.30;31.90;;;;;;5035566;28;20032;-57
2022/03/19 09:44:12;;;;;;;1.75;0.77;;;21.40;31.90;;;;;;5037246;28;20453;-59
2022/03/19 09:46:38;;;;;;;1.92;0.77;;;21.40;31.90;;;;;;5037662;28;20033;-57
2022/03/19 09:49:04;;;;;;;1.65;0.60;;;21.40;31.80;;;;;;5037161;28;20022;-58
2022/03/19 09:51:33;;;;;;;1.08;0.52;;;21.40;31.80;;;;;;5040833;28;20428;-59
2022/03/19 09:53:59;;;;;;;1.27;0.60;;;21.40;31.80;;;;;;5036939;28;20040;-59
2022/03/19 09:56:25;;;;;;;1.58;0.60;;;21.40;31.80;;;;;;5037493;28;20425;-59
2022/03/19 09:58:52;;;;;;;0.77;0.50;;;21.40;31.70;;;;;;5036370;28;20068;-59
2022/03/19 10:01:19;;;;;;;0.82;0.50;;;21.40;31.70;;;;;;5036621;28;20104;-57
2022/03/19 10:03:51;;;;;;;1.75;0.70;;;21.50;31.70;;;;;;5036488;28;20040;-59
2022/03/19 10:09:02;;;;;;;1.33;0.70;;;21.50;31.50;;;;;;5036844;28;20368;-49
2022/03/19 10:11:34;;;;;;;1.45;0.55;;;21.50;31.40;;;;;;5037201;28;20452;-57
2022/03/19 10:14:04;;;;;;;1.73;0.70;;;21.50;31.30;;;;;;5036197;28;20036;-46
2022/03/19 10:16:33;;;;;;;3.40;1.17;;;21.50;31.20;;;;;;5036955;28;20037;-45
2022/03/19 10:19:04;;;;;;;2.17;1.10;;;21.50;31.10;;;;;;5044777;28;20041;-46
2022/03/19 10:21:36;;;;;;;2.45;0.93;;;21.30;31.10;;;;;;5040394;28;20095;-46
2022/03/19 10:24:02;;;;;;;1.58;0.65;;;21.20;31.30;;;;;;5036402;28;20044;-52
2022/03/19 10:26:27;;;;;;;3.65;1.00;;;21.00;31.50;;;;;;5033156;28;20128;-52
2022/03/19 10:29:01;;;;;;;2.95;0.50;;;20.90;31.60;;;;;;5049282;28;20112;-52
2022/03/19 10:31:35;;;;;;;1.13;0.60;;;20.70;31.30;;;;;;5046558;28;20040;-54
2022/03/19 10:34:02;;;;;;;2.15;0.60;;;20.70;31.20;;;;;;5037675;28;20288;-53
2022/03/19 10:36:41;;;;;;;1.20;0.60;;;20.70;31.00;;;;;;5033361;28;20088;-52
2022/03/19 10:39:18;;;;;;;1.05;0.50;;;20.80;30.80;;;;;;5011796;28;20360;-53
2022/03/19 10:41:45;;;;;;;1.33;0.50;;;20.80;30.60;;;;;;5038951;28;20029;-52
2022/03/19 10:44:27;;;;;;;1.83;0.60;;;20.80;30.50;;;;;;5037127;28;20025;-52
2022/03/19 10:46:55;;;;;;;3.15;0.75;;;20.80;30.20;;;;;;5046387;28;20056;-53
2022/03/19 10:49:26;;;;;;;0.73;0.38;;;20.80;30.20;;;;;;5046185;28;20091;-53
2022/03/19 10:51:54;;;;;;;1.10;0.47;;;20.80;30.20;;;;;;5040815;28;20349;-52
2022/03/19 10:54:22;;;;;;;1.48;0.50;;;20.90;30.20;;;;;;5036253;28;20393;-53
2022/03/19 10:56:49;;;;;;;1.30;0.47;;;20.90;30.20;;;;;;5036378;28;20021;-54
2022/03/19 10:59:15;;;;;;;0.80;0.50;;;20.90;30.10;;;;;;5036600;28;20124;-52
2022/03/19 11:01:42;;;;;;;1.52;0.80;;;20.90;30.00;;;;;;5047031;28;20031;-48
2022/03/19 11:04:10;;;;;;;2.65;0.68;;;20.90;30.00;;;;;;5040159;28;20103;-55
2022/03/19 11:06:50;;;;;;;1.00;0.50;;;20.90;29.90;;;;;;5035655;28;20025;-53
2022/03/19 11:09:19;;;;;;;0.85;0.40;;;20.90;29.90;;;;;;5036868;28;20108;-51
2022/03/19 11:11:55;;;;;;;1.02;0.50;;;20.90;29.80;;;;;;5034901;28;20084;-52
2022/03/19 11:14:23;;;;;;;0.90;0.40;;;20.90;29.80;;;;;;5039542;28;20071;-52
2022/03/19 11:17:24;;;;;;;0.70;0.40;;;20.90;29.80;;;;;;5035136;28;20021;-53
2022/03/19 11:20:00;;;;;;;2.30;0.60;;;20.90;29.80;;;;;;5026651;28;20032;-54
2022/03/19 11:22:39;;;;;;;0.80;0.30;;;20.90;29.90;;;;;;5032792;28;20376;-53
2022/03/19 11:25:30;;;;;;;1.02;0.47;;;20.90;30.00;;;;;;5038064;28;20070;-56
2022/03/19 11:28:08;;;;;;;0.70;0.40;;;21.00;29.90;;;;;;5040638;28;20035;-59
2022/03/19 11:30:40;;;;;;;0.90;0.50;;;21.00;29.90;;;;;;5034994;28;20091;-49
2022/03/19 11:33:18;;;;;;;0.70;0.40;;;21.00;29.90;;;;;;5024965;28;20076;-59
2022/03/19 11:36:06;;;;;;;1.52;0.50;;;21.00;29.90;;;;;;5034815;28;20025;-58
2022/03/19 11:38:52;;;;;;;0.40;0.40;;;21.10;29.90;;;;;;5034884;28;20047;-55
2022/03/19 11:41:29;;;;;;;1.52;0.68;;;21.10;29.80;;;;;;5016688;28;20113;-59
2022/03/19 11:44:16;;;;;;;0.60;0.50;;;21.10;29.70;;;;;;5034579;28;20039;-59
2022/03/19 11:46:58;;;;;;;1.38;0.55;;;21.10;29.60;;;;;;5030949;28;20037;-60
2022/03/19 11:49:50;;;;;;;1.05;0.40;;;21.10;29.60;;;;;;5033454;28;20103;-53
2022/03/19 11:52:26;;;;;;;1.15;0.57;;;21.10;29.60;;;;;;5023621;28;20897;-57
2022/03/19 11:55:02;;;;;;;0.85;0.52;;;21.10;29.50;;;;;;5020230;28;20052;-57
2022/03/19 11:57:46;;;;;;;0.47;0.40;;;21.10;29.50;;;;;;5029365;28;20116;-58
2022/03/19 12:00:19;;;;;;;1.60;0.70;;;21.10;29.50;;;;;;5031958;28;20443;-58
2022/03/19 12:03:16;;;;;;;1.27;0.68;;;21.10;29.40;;;;;;5013351;28;20042;-58
2022/03/19 12:05:49;;;;;;;0.57;0.45;;;21.10;29.40;;;;;;5033278;28;20059;-55
2022/03/19 12:08:23;;;;;;;0.65;0.47;;;21.10;29.80;;;;;;5030359;28;20021;-61
2022/03/19 12:10:59;;;;;;;4.47;0.50;;;21.10;29.30;;;;;;5027184;28;20133;-61
2022/03/19 12:13:29;;;;;;;1.25;0.68;;;21.10;29.40;;;;;;5032325;28;20040;-60
2022/03/19 12:15:57;;;;;;;1.27;0.63;;;21.20;29.40;;;;;;5022932;28;20025;-61
2022/03/19 12:18:44;;;;;;;0.98;0.40;;;21.20;29.30;;;;;;5031164;28;20025;-62
2022/03/19 12:21:10;;;;;;;0.88;0.45;;;21.30;29.20;;;;;;5014729;28;20531;-57
2022/03/19 12:23:47;;;;;;;2.45;0.50;;;21.40;29.20;;;;;;5033377;28;20073;-52
2022/03/19 12:26:16;;;;;;;1.17;0.52;;;21.40;29.00;;;;;;5030530;28;20053;-56
2022/03/19 12:28:46;;;;;;;1.42;0.63;;;21.50;29.00;;;;;;5031569;28;20112;-60
2022/03/19 12:31:19;;;;;;;1.23;0.50;;;21.50;28.90;;;;;;5027821;28;20021;-60
2022/03/19 12:33:46;;;;;;;1.25;0.47;;;21.50;28.90;;;;;;5031866;28;20018;-57
2022/03/19 12:36:23;;;;;;;1.08;0.57;;;21.50;28.80;;;;;;5033548;28;20025;-58
2022/03/19 12:38:50;;;;;;;1.52;0.60;;;21.50;28.80;;;;;;5031597;28;20033;-54
2022/03/19 12:41:28;;;;;;;1.02;0.40;;;21.40;28.70;;;;;;5025906;28;20045;-58
2022/03/19 12:43:55;;;;;;;2.58;0.50;;;21.40;28.70;;;;;;5023348;28;20030;-58
2022/03/19 12:46:37;;;;;;;1.30;0.50;;;21.40;28.70;;;;;;5033813;28;20037;-58
2022/03/19 12:49:14;;;;;;;1.05;0.55;;;21.40;28.70;;;;;;5033998;28;20055;-58
2022/03/19 12:51:45;;;;;;;0.70;0.50;;;21.40;28.60;;;;;;5028938;28;20061;-57
2022/03/19 12:54:28;;;;;;;0.65;0.40;;;21.40;28.70;;;;;;5021619;28;20029;-57
2022/03/19 12:56:59;;;;;;;1.00;0.40;;;21.40;28.60;;;;;;5014611;28;20037;-58
2022/03/19 12:59:28;;;;;;;0.82;0.47;;;21.30;28.60;;;;;;5027966;28;20040;-59
2022/03/19 13:01:56;;;;;;;1.02;0.30;;;21.30;28.60;;;;;;5033780;28;20418;-56
2022/03/19 13:04:25;;;;;;;1.05;0.50;;;21.30;28.60;;;;;;5015176;28;20038;-59
2022/03/19 13:06:53;;;;;;;0.75;0.50;;;21.30;28.50;;;;;;5022247;28;20104;-60